N750GK KLAS-KSAN
Flight info
| Callsign | N750GK |
|---|---|
| Flight time | 0h 38m |
| Altitude | 26000 |
| Route | RADYR2 LVELL LUCKI1 |
| Aircraft | C750/M-VGDW/C |
Departure
| Time | 2026-05-07 20:10 |
|---|---|
| Airport | Harry Reid International Airport (KLAS) |
Arrival
| Time | 2026-05-07 20:48 |
|---|---|
| Airport | San Diego International Airport (KSAN) |
| Time | Latitude | Longitude | Altitude | Speed | Heading |
|---|---|---|---|---|---|
| 2026-05-07 20:01 | 36.09843 | -115.16177 | 2122 ft | 0 kts | 0° |
| 2026-05-07 20:06 | 36.09845 | -115.16177 | 2149 ft | 1 kts | 0° |
| 2026-05-07 20:06 | 36.09853 | -115.16155 | 2116 ft | 5 kts | 116° |
| 2026-05-07 20:06 | 36.09823 | -115.16120 | 2111 ft | 6 kts | 138° |
| 2026-05-07 20:07 | 36.09784 | -115.16070 | 2115 ft | 10 kts | 118° |
| 2026-05-07 20:07 | 36.09778 | -115.15995 | 2110 ft | 10 kts | 49° |
| 2026-05-07 20:07 | 36.09846 | -115.15953 | 2108 ft | 11 kts | 25° |
| 2026-05-07 20:07 | 36.09921 | -115.15909 | 2106 ft | 12 kts | 29° |
| 2026-05-07 20:08 | 36.09959 | -115.15847 | 2104 ft | 15 kts | 69° |
| 2026-05-07 20:08 | 36.09954 | -115.15671 | 2097 ft | 17 kts | 115° |
| 2026-05-07 20:08 | 36.09903 | -115.15532 | 2094 ft | 18 kts | 114° |
| 2026-05-07 20:08 | 36.09869 | -115.15440 | 2090 ft | 16 kts | 115° |
| 2026-05-07 20:09 | 36.09785 | -115.15397 | 2091 ft | 13 kts | 204° |
| 2026-05-07 20:09 | 36.09485 | -115.15570 | 2096 ft | 105 kts | 205° |
| 2026-05-07 20:09 | 36.08610 | -115.16073 | 2338 ft | 152 kts | 204° |
| 2026-05-07 20:10 | 36.06651 | -115.17238 | 3773 ft | 164 kts | 203° |
| 2026-05-07 20:10 | 36.05577 | -115.17861 | 4521 ft | 175 kts | 205° |
| 2026-05-07 20:10 | 36.04454 | -115.18523 | 5290 ft | 183 kts | 205° |
| 2026-05-07 20:10 | 36.03261 | -115.19232 | 5961 ft | 200 kts | 206° |
| 2026-05-07 20:11 | 36.01928 | -115.20022 | 6510 ft | 225 kts | 207° |
| 2026-05-07 20:11 | 36.00427 | -115.20892 | 7005 ft | 252 kts | 205° |
| 2026-05-07 20:11 | 35.98672 | -115.21662 | 7470 ft | 281 kts | 201° |
| 2026-05-07 20:11 | 35.96807 | -115.22527 | 8407 ft | 287 kts | 202° |
| 2026-05-07 20:12 | 35.94924 | -115.23407 | 9491 ft | 294 kts | 202° |
| 2026-05-07 20:12 | 35.92977 | -115.24290 | 10350 ft | 303 kts | 202° |
| 2026-05-07 20:12 | 35.90912 | -115.25220 | 10709 ft | 329 kts | 201° |
| 2026-05-07 20:12 | 35.88672 | -115.26238 | 10901 ft | 356 kts | 201° |
| 2026-05-07 20:13 | 35.86315 | -115.27306 | 11417 ft | 367 kts | 201° |
| 2026-05-07 20:13 | 35.83915 | -115.28392 | 12264 ft | 370 kts | 200° |
| 2026-05-07 20:13 | 35.81474 | -115.29498 | 12994 ft | 375 kts | 200° |
| 2026-05-07 20:13 | 35.79010 | -115.30614 | 13753 ft | 379 kts | 200° |
| 2026-05-07 20:14 | 35.76519 | -115.31740 | 14417 ft | 384 kts | 200° |
| 2026-05-07 20:14 | 35.73995 | -115.32880 | 15077 ft | 388 kts | 200° |
| 2026-05-07 20:14 | 35.71448 | -115.34032 | 15744 ft | 392 kts | 200° |
| 2026-05-07 20:14 | 35.68869 | -115.35196 | 16414 ft | 396 kts | 200° |
| 2026-05-07 20:15 | 35.66297 | -115.36355 | 17078 ft | 401 kts | 200° |
| 2026-05-07 20:15 | 35.63660 | -115.37544 | 17776 ft | 406 kts | 200° |
| 2026-05-07 20:15 | 35.60928 | -115.38524 | 18362 ft | 412 kts | 188° |
| 2026-05-07 20:15 | 35.58055 | -115.38612 | 18915 ft | 416 kts | 176° |
| 2026-05-07 20:16 | 35.55102 | -115.38397 | 19057 ft | 435 kts | 175° |
| 2026-05-07 20:16 | 35.52001 | -115.38139 | 19060 ft | 455 kts | 175° |
| 2026-05-07 20:16 | 35.48778 | -115.37907 | 19052 ft | 472 kts | 176° |
| 2026-05-07 20:16 | 35.45476 | -115.37698 | 19050 ft | 477 kts | 176° |
| 2026-05-07 20:17 | 35.42141 | -115.37467 | 19050 ft | 481 kts | 175° |
| 2026-05-07 20:17 | 35.38833 | -115.37218 | 19042 ft | 484 kts | 175° |
| 2026-05-07 20:17 | 35.35474 | -115.36972 | 19044 ft | 484 kts | 175° |
| 2026-05-07 20:17 | 35.32101 | -115.36743 | 19043 ft | 485 kts | 175° |
| 2026-05-07 20:18 | 35.28738 | -115.36512 | 19032 ft | 482 kts | 175° |
| 2026-05-07 20:18 | 35.25449 | -115.36276 | 19834 ft | 461 kts | 175° |
| 2026-05-07 20:18 | 35.22336 | -115.36055 | 21206 ft | 433 kts | 175° |
| 2026-05-07 20:18 | 35.19334 | -115.35842 | 21991 ft | 435 kts | 175° |
| 2026-05-07 20:19 | 35.16291 | -115.35626 | 22649 ft | 440 kts | 175° |
| 2026-05-07 20:19 | 35.13214 | -115.35410 | 23325 ft | 445 kts | 175° |
| 2026-05-07 20:19 | 35.10105 | -115.35192 | 23926 ft | 449 kts | 175° |
| 2026-05-07 20:19 | 35.06961 | -115.34973 | 24498 ft | 453 kts | 175° |
| 2026-05-07 20:20 | 35.03832 | -115.34755 | 25030 ft | 457 kts | 175° |
| 2026-05-07 20:20 | 35.00637 | -115.34534 | 25592 ft | 461 kts | 175° |
| 2026-05-07 20:20 | 34.97416 | -115.34309 | 25987 ft | 469 kts | 175° |
| 2026-05-07 20:20 | 34.94091 | -115.34076 | 25974 ft | 486 kts | 175° |
| 2026-05-07 20:21 | 34.90652 | -115.33838 | 25978 ft | 502 kts | 175° |
| 2026-05-07 20:21 | 34.87116 | -115.33594 | 25984 ft | 515 kts | 175° |
| 2026-05-07 20:21 | 34.83484 | -115.33343 | 25967 ft | 527 kts | 175° |
| 2026-05-07 20:21 | 34.79834 | -115.33398 | 25941 ft | 534 kts | 184° |
| 2026-05-07 20:22 | 34.76151 | -115.34135 | 25937 ft | 538 kts | 193° |
| 2026-05-07 20:22 | 34.72574 | -115.35504 | 25938 ft | 540 kts | 200° |
| 2026-05-07 20:22 | 34.69035 | -115.37073 | 25948 ft | 541 kts | 200° |
| 2026-05-07 20:22 | 34.65480 | -115.38626 | 25947 ft | 542 kts | 199° |
| 2026-05-07 20:23 | 34.61929 | -115.40166 | 25950 ft | 542 kts | 199° |
| 2026-05-07 20:23 | 34.58380 | -115.41716 | 25949 ft | 542 kts | 200° |
| 2026-05-07 20:23 | 34.54879 | -115.43254 | 25941 ft | 541 kts | 200° |
| 2026-05-07 20:23 | 34.51330 | -115.44805 | 25940 ft | 541 kts | 199° |
| 2026-05-07 20:24 | 34.47791 | -115.46340 | 25937 ft | 540 kts | 199° |
| 2026-05-07 20:24 | 34.44251 | -115.47880 | 25940 ft | 539 kts | 199° |
| 2026-05-07 20:24 | 34.40713 | -115.49423 | 25938 ft | 539 kts | 199° |
| 2026-05-07 20:24 | 34.37186 | -115.50957 | 25942 ft | 538 kts | 199° |
| 2026-05-07 20:25 | 34.33677 | -115.52525 | 25938 ft | 537 kts | 202° |
| 2026-05-07 20:25 | 34.30353 | -115.54595 | 25935 ft | 537 kts | 211° |
| 2026-05-07 20:25 | 34.27177 | -115.56957 | 25937 ft | 536 kts | 212° |
| 2026-05-07 20:25 | 34.23999 | -115.59308 | 25948 ft | 536 kts | 212° |
| 2026-05-07 20:26 | 34.20754 | -115.61537 | 25931 ft | 536 kts | 206° |
| 2026-05-07 20:26 | 34.17307 | -115.63250 | 25945 ft | 535 kts | 201° |
| 2026-05-07 20:26 | 34.13867 | -115.64850 | 25956 ft | 535 kts | 201° |
| 2026-05-07 20:26 | 34.10408 | -115.66495 | 25965 ft | 535 kts | 201° |
| 2026-05-07 20:27 | 34.06938 | -115.68154 | 25967 ft | 535 kts | 201° |
| 2026-05-07 20:27 | 34.03465 | -115.69789 | 25969 ft | 536 kts | 201° |
| 2026-05-07 20:27 | 33.99983 | -115.71412 | 25971 ft | 536 kts | 201° |
| 2026-05-07 20:27 | 33.96507 | -115.73048 | 25968 ft | 536 kts | 201° |
| 2026-05-07 20:28 | 33.93036 | -115.74692 | 25972 ft | 536 kts | 201° |
| 2026-05-07 20:28 | 33.89561 | -115.76340 | 25966 ft | 536 kts | 201° |
| 2026-05-07 20:28 | 33.86148 | -115.78026 | 25966 ft | 536 kts | 202° |
| 2026-05-07 20:28 | 33.82708 | -115.79757 | 25965 ft | 536 kts | 202° |
| 2026-05-07 20:29 | 33.79243 | -115.81455 | 25958 ft | 536 kts | 201° |
| 2026-05-07 20:29 | 33.75779 | -115.83116 | 25959 ft | 536 kts | 201° |
| 2026-05-07 20:29 | 33.72309 | -115.84747 | 25943 ft | 536 kts | 201° |
| 2026-05-07 20:29 | 33.68816 | -115.86358 | 25933 ft | 536 kts | 201° |
| 2026-05-07 20:30 | 33.65341 | -115.87974 | 25932 ft | 535 kts | 201° |
| 2026-05-07 20:30 | 33.61872 | -115.89611 | 25931 ft | 536 kts | 201° |
| 2026-05-07 20:30 | 33.58398 | -115.91250 | 25924 ft | 536 kts | 201° |
| 2026-05-07 20:30 | 33.55106 | -115.93213 | 25905 ft | 536 kts | 211° |
| 2026-05-07 20:31 | 33.52011 | -115.95789 | 25901 ft | 536 kts | 219° |
| 2026-05-07 20:31 | 33.49378 | -115.98686 | 25281 ft | 504 kts | 228° |
| 2026-05-07 20:31 | 33.47226 | -116.01830 | 24676 ft | 471 kts | 235° |
| 2026-05-07 20:31 | 33.45404 | -116.04992 | 24120 ft | 454 kts | 237° |
| 2026-05-07 20:32 | 33.43602 | -116.08095 | 23563 ft | 452 kts | 237° |
| 2026-05-07 20:32 | 33.41805 | -116.11158 | 22958 ft | 447 kts | 237° |
| 2026-05-07 20:32 | 33.40031 | -116.14205 | 22410 ft | 444 kts | 237° |
| 2026-05-07 20:32 | 33.38276 | -116.17236 | 21862 ft | 441 kts | 237° |
| 2026-05-07 20:33 | 33.36531 | -116.20238 | 21321 ft | 437 kts | 236° |
| 2026-05-07 20:33 | 33.34673 | -116.23100 | 20768 ft | 434 kts | 228° |
| 2026-05-07 20:33 | 33.32405 | -116.25485 | 20260 ft | 433 kts | 216° |
| 2026-05-07 20:33 | 33.29857 | -116.27296 | 19738 ft | 429 kts | 206° |
| 2026-05-07 20:34 | 33.27181 | -116.28850 | 19218 ft | 426 kts | 205° |
| 2026-05-07 20:34 | 33.24527 | -116.30403 | 18690 ft | 423 kts | 205° |
| 2026-05-07 20:34 | 33.21896 | -116.31955 | 18149 ft | 420 kts | 205° |
| 2026-05-07 20:34 | 33.19292 | -116.33483 | 17604 ft | 415 kts | 205° |
| 2026-05-07 20:35 | 33.16696 | -116.34995 | 17086 ft | 412 kts | 205° |
| 2026-05-07 20:35 | 33.14130 | -116.36492 | 16564 ft | 407 kts | 205° |
| 2026-05-07 20:35 | 33.11589 | -116.37980 | 16068 ft | 405 kts | 205° |
| 2026-05-07 20:35 | 33.09066 | -116.39455 | 15595 ft | 400 kts | 205° |
| 2026-05-07 20:36 | 33.06668 | -116.40855 | 15115 ft | 377 kts | 205° |
| 2026-05-07 20:36 | 33.04369 | -116.42195 | 14662 ft | 362 kts | 205° |
| 2026-05-07 20:36 | 33.02119 | -116.43506 | 14213 ft | 356 kts | 205° |
| 2026-05-07 20:36 | 32.99982 | -116.44962 | 13728 ft | 354 kts | 216° |
| 2026-05-07 20:37 | 32.98106 | -116.46824 | 13318 ft | 349 kts | 221° |
| 2026-05-07 20:37 | 32.96297 | -116.48735 | 12882 ft | 346 kts | 221° |
| 2026-05-07 20:37 | 32.94472 | -116.50597 | 12472 ft | 345 kts | 221° |
| 2026-05-07 20:37 | 32.92629 | -116.52417 | 12042 ft | 342 kts | 220° |
| 2026-05-07 20:38 | 32.90823 | -116.54225 | 11619 ft | 337 kts | 221° |
| 2026-05-07 20:38 | 32.89039 | -116.56039 | 11204 ft | 336 kts | 221° |
| 2026-05-07 20:38 | 32.87263 | -116.57834 | 10791 ft | 333 kts | 219° |
| 2026-05-07 20:38 | 32.85498 | -116.59606 | 10386 ft | 329 kts | 219° |
| 2026-05-07 20:39 | 32.83813 | -116.61300 | 9981 ft | 313 kts | 220° |
| 2026-05-07 20:39 | 32.82177 | -116.62953 | 9589 ft | 306 kts | 219° |
| 2026-05-07 20:39 | 32.80551 | -116.64587 | 9125 ft | 303 kts | 220° |
| 2026-05-07 20:39 | 32.78954 | -116.66188 | 8744 ft | 299 kts | 220° |
| 2026-05-07 20:40 | 32.77419 | -116.67858 | 8335 ft | 299 kts | 229° |
| 2026-05-07 20:40 | 32.76336 | -116.69924 | 7984 ft | 291 kts | 242° |
| 2026-05-07 20:40 | 32.75384 | -116.72033 | 7648 ft | 290 kts | 243° |
| 2026-05-07 20:40 | 32.74409 | -116.74122 | 7288 ft | 287 kts | 242° |
| 2026-05-07 20:41 | 32.73438 | -116.76138 | 6947 ft | 284 kts | 242° |
| 2026-05-07 20:41 | 32.72468 | -116.78170 | 6584 ft | 281 kts | 242° |
| 2026-05-07 20:41 | 32.71516 | -116.80187 | 6229 ft | 278 kts | 243° |
| 2026-05-07 20:41 | 32.70617 | -116.82210 | 5852 ft | 274 kts | 248° |
| 2026-05-07 20:42 | 32.69976 | -116.84275 | 5535 ft | 258 kts | 252° |
| 2026-05-07 20:42 | 32.69374 | -116.86235 | 5226 ft | 247 kts | 252° |
| 2026-05-07 20:42 | 32.68794 | -116.88106 | 4946 ft | 236 kts | 253° |
| 2026-05-07 20:42 | 32.68310 | -116.89924 | 4882 ft | 231 kts | 253° |
| 2026-05-07 20:43 | 32.67737 | -116.91710 | 4639 ft | 229 kts | 251° |
| 2026-05-07 20:43 | 32.67307 | -116.93460 | 4307 ft | 216 kts | 266° |
| 2026-05-07 20:43 | 32.67551 | -116.95183 | 4046 ft | 211 kts | 287° |
| 2026-05-07 20:43 | 32.67976 | -116.96857 | 3816 ft | 212 kts | 287° |
| 2026-05-07 20:44 | 32.68386 | -116.98524 | 3554 ft | 211 kts | 288° |
| 2026-05-07 20:44 | 32.68776 | -117.00142 | 3277 ft | 195 kts | 287° |
| 2026-05-07 20:44 | 32.69137 | -117.01625 | 3026 ft | 181 kts | 287° |
| 2026-05-07 20:44 | 32.69482 | -117.03031 | 2806 ft | 177 kts | 286° |
| 2026-05-07 20:45 | 32.69824 | -117.04433 | 2571 ft | 175 kts | 286° |
| 2026-05-07 20:45 | 32.70163 | -117.05822 | 2364 ft | 174 kts | 285° |
| 2026-05-07 20:45 | 32.70494 | -117.07180 | 2143 ft | 165 kts | 285° |
| 2026-05-07 20:45 | 32.70782 | -117.08361 | 1966 ft | 137 kts | 284° |
| 2026-05-07 20:46 | 32.71042 | -117.09407 | 1779 ft | 128 kts | 284° |
| 2026-05-07 20:46 | 32.71294 | -117.10384 | 1634 ft | 120 kts | 285° |
| 2026-05-07 20:46 | 32.71526 | -117.11325 | 1512 ft | 118 kts | 284° |
| 2026-05-07 20:46 | 32.71753 | -117.12268 | 1313 ft | 121 kts | 283° |
| 2026-05-07 20:47 | 32.71978 | -117.13220 | 1164 ft | 121 kts | 282° |
| 2026-05-07 20:47 | 32.72208 | -117.14181 | 990 ft | 121 kts | 282° |
| 2026-05-07 20:47 | 32.72452 | -117.15139 | 800 ft | 122 kts | 281° |
| 2026-05-07 20:47 | 32.72696 | -117.16120 | 533 ft | 124 kts | 278° |
| 2026-05-07 20:48 | 32.72916 | -117.17122 | 303 ft | 125 kts | 276° |
| 2026-05-07 20:48 | 32.73154 | -117.18118 | 30 ft | 121 kts | 282° |
| 2026-05-07 20:48 | 32.73340 | -117.18896 | 18 ft | 52 kts | 286° |
| 2026-05-07 20:48 | 32.73403 | -117.19084 | 17 ft | 16 kts | 327° |
| 2026-05-07 20:49 | 32.73470 | -117.19069 | 16 ft | 6 kts | 37° |
| 2026-05-07 20:49 | 32.73481 | -117.19008 | 15 ft | 9 kts | 107° |
| 2026-05-07 20:49 | 32.73464 | -117.18935 | 15 ft | 9 kts | 106° |
| 2026-05-07 20:49 | 32.73446 | -117.18862 | 15 ft | 9 kts | 106° |
| 2026-05-07 20:50 | 32.73428 | -117.18790 | 15 ft | 9 kts | 106° |
| 2026-05-07 20:50 | 32.73410 | -117.18716 | 13 ft | 9 kts | 106° |
| 2026-05-07 20:50 | 32.73391 | -117.18636 | 19 ft | 10 kts | 106° |
| 2026-05-07 20:50 | 32.73374 | -117.18568 | 22 ft | 7 kts | 106° |
| 2026-05-07 20:51 | 32.73360 | -117.18510 | 21 ft | 9 kts | 106° |
| 2026-05-07 20:51 | 32.73339 | -117.18421 | 21 ft | 14 kts | 106° |
| 2026-05-07 20:51 | 32.73306 | -117.18290 | 19 ft | 17 kts | 106° |
| 2026-05-07 20:51 | 32.73274 | -117.18156 | 20 ft | 17 kts | 106° |
| 2026-05-07 20:52 | 32.73243 | -117.18026 | 21 ft | 12 kts | 102° |
| 2026-05-07 20:52 | 32.73279 | -117.17974 | 20 ft | 7 kts | 16° |
| 2026-05-07 20:52 | 32.73321 | -117.17960 | 22 ft | 6 kts | 16° |
| 2026-05-07 20:52 | 32.73350 | -117.17932 | 22 ft | 5 kts | 90° |
| 2026-05-07 20:53 | 32.73341 | -117.17892 | 22 ft | 4 kts | 103° |
| 2026-05-07 20:53 | 32.73345 | -117.17889 | 22 ft | 0 kts | 25° |
| 2026-05-07 20:53 | 32.73348 | -117.17889 | 20 ft | 0 kts | 14° |